Time;durP1;ratioP1;P1;durP2;ratioP2;P2;SDS_P1;SDS_P2;PMS_P1;PMS_P2;Temp;Humidity;BMP_temperature;BMP_pressure;BME280_temperature;BME280_humidity;BME280_pressure;Samples;Min_cycle;Max_cycle;Signal;HPM_P1;HPM_P2
2022/09/20 00:01:03;;;;;;;7.90;1.10;;;9.50;99.90;;;;;;5060031;28;20049;-70
2022/09/20 00:03:29;;;;;;;11.57;1.17;;;9.50;99.90;;;;;;5059044;28;20184;-70
2022/09/20 00:05:58;;;;;;;6.40;1.10;;;9.40;99.90;;;;;;5059611;28;20088;-70
2022/09/20 00:08:24;;;;;;;6.68;1.00;;;9.40;99.90;;;;;;5058199;28;20065;-70
2022/09/20 00:10:50;;;;;;;6.30;1.10;;;9.40;99.90;;;;;;5027039;28;20069;-70
2022/09/20 00:13:16;;;;;;;10.70;1.35;;;9.30;99.90;;;;;;5009529;28;20037;-71
2022/09/20 00:15:45;;;;;;;12.10;1.20;;;9.30;99.90;;;;;;5028410;28;20192;-70
2022/09/20 00:18:12;;;;;;;5.68;1.10;;;9.30;99.90;;;;;;5026982;28;20064;-70
2022/09/20 00:20:48;;;;;;;6.88;1.30;;;9.20;99.90;;;;;;5026192;28;20043;-70
2022/09/20 00:23:15;;;;;;;5.57;1.00;;;9.20;99.90;;;;;;5025899;28;20502;-71
2022/09/20 00:25:41;;;;;;;9.25;1.48;;;9.20;99.90;;;;;;5028301;28;20132;-70
2022/09/20 00:28:10;;;;;;;6.93;1.38;;;9.20;99.90;;;;;;5042470;28;20033;-69
2022/09/20 00:30:36;;;;;;;8.73;1.50;;;9.20;99.90;;;;;;5058007;28;20180;-70
2022/09/20 00:33:02;;;;;;;9.43;1.08;;;9.10;99.90;;;;;;5026840;28;20052;-70
2022/09/20 00:35:29;;;;;;;6.60;1.00;;;9.10;99.90;;;;;;5026642;28;20457;-70
2022/09/20 00:37:56;;;;;;;5.38;1.00;;;9.10;99.90;;;;;;5026618;28;20503;-70
2022/09/20 00:40:23;;;;;;;10.10;1.13;;;9.00;99.90;;;;;;5027894;28;20041;-70
2022/09/20 00:42:49;;;;;;;14.57;1.38;;;9.00;99.90;;;;;;5026080;28;20124;-70
2022/09/20 00:45:20;;;;;;;11.90;1.98;;;9.00;99.90;;;;;;5028276;28;20433;-70
2022/09/20 00:48:01;;;;;;;11.95;1.55;;;9.00;99.90;;;;;;5059068;28;20540;-70
2022/09/20 00:50:50;;;;;;;6.40;1.10;;;9.00;99.90;;;;;;5025309;28;20045;-70
2022/09/20 00:53:29;;;;;;;6.15;1.10;;;8.90;99.90;;;;;;5023914;28;20049;-70
2022/09/20 00:56:04;;;;;;;6.00;1.00;;;9.00;99.90;;;;;;5029030;28;20437;-70
2022/09/20 00:58:35;;;;;;;10.05;1.10;;;8.90;99.90;;;;;;5026788;28;20033;-69
2022/09/20 01:01:03;;;;;;;7.50;1.05;;;8.90;99.90;;;;;;5025537;28;20065;-70
2022/09/20 01:03:35;;;;;;;7.40;1.00;;;8.90;99.90;;;;;;5025632;28;20041;-70
2022/09/20 01:06:05;;;;;;;10.27;1.10;;;8.80;99.90;;;;;;5026105;28;20501;-69
2022/09/20 01:08:34;;;;;;;5.30;1.07;;;8.80;99.90;;;;;;5022842;28;20049;-68
2022/09/20 01:11:00;;;;;;;6.93;1.00;;;8.80;99.90;;;;;;5041268;28;20296;-70
2022/09/20 01:13:26;;;;;;;5.35;0.75;;;8.80;99.90;;;;;;5009579;28;20041;-69
2022/09/20 01:15:53;;;;;;;10.25;1.10;;;8.80;99.90;;;;;;5029212;28;20045;-69
2022/09/20 01:18:20;;;;;;;5.68;0.98;;;8.80;99.90;;;;;;5059958;28;20053;-69
2022/09/20 01:20:48;;;;;;;8.52;1.10;;;8.70;99.90;;;;;;5026830;28;20049;-70
2022/09/20 01:23:28;;;;;;;6.60;1.55;;;8.70;99.90;;;;;;5025974;28;20102;-70
2022/09/20 01:26:30;;;;;;;6.57;0.90;;;8.70;99.90;;;;;;5052649;28;20053;-70
2022/09/20 01:29:08;;;;;;;7.43;1.30;;;8.70;99.90;;;;;;4936584;28;20668;-70
2022/09/20 01:31:44;;;;;;;6.32;1.05;;;8.70;99.90;;;;;;5010283;28;21065;-70
2022/09/20 01:34:13;;;;;;;5.57;1.00;;;8.60;99.90;;;;;;5017069;28;20084;-69
2022/09/20 01:37:03;;;;;;;6.20;0.88;;;8.70;99.90;;;;;;5048844;28;20049;-70
2022/09/20 01:39:38;;;;;;;7.28;0.85;;;8.50;99.90;;;;;;5018138;28;20034;-71
2022/09/20 01:42:12;;;;;;;6.95;0.95;;;8.50;99.90;;;;;;5027827;28;20084;-70
2022/09/20 01:44:54;;;;;;;8.25;1.13;;;8.50;99.90;;;;;;5024905;28;20064;-70
2022/09/20 01:47:39;;;;;;;6.00;1.25;;;8.50;99.90;;;;;;5023779;28;20059;-70
2022/09/20 01:50:14;;;;;;;5.72;1.10;;;8.50;99.90;;;;;;5037742;28;20099;-69
2022/09/20 01:53:06;;;;;;;9.38;1.25;;;8.40;99.90;;;;;;5040719;28;20128;-70
2022/09/20 01:56:02;;;;;;;6.55;0.90;;;8.40;99.90;;;;;;5020814;28;21088;-70
2022/09/20 01:58:42;;;;;;;7.47;1.00;;;8.40;99.90;;;;;;5039551;28;20072;-70
2022/09/20 02:01:34;;;;;;;7.85;1.00;;;8.30;99.90;;;;;;5023483;28;20115;-70
2022/09/20 02:04:03;;;;;;;5.60;0.90;;;8.40;99.90;;;;;;5026090;28;20057;-70
2022/09/20 02:06:55;;;;;;;6.50;0.95;;;8.30;99.90;;;;;;5055632;28;20030;-70
2022/09/20 02:09:44;;;;;;;5.90;1.73;;;8.30;99.90;;;;;;5024156;28;20095;-70
2022/09/20 02:12:29;;;;;;;7.47;1.02;;;8.20;99.90;;;;;;5018504;28;20124;-70
2022/09/20 02:15:35;;;;;;;9.68;1.45;;;8.20;99.90;;;;;;5039999;28;20143;-70
2022/09/20 02:18:16;;;;;;;7.30;0.98;;;8.50;99.90;;;;;;5022417;28;20061;-70
2022/09/20 02:21:13;;;;;;;8.68;0.95;;;8.20;99.90;;;;;;5007514;28;20057;-71
2022/09/20 02:23:58;;;;;;;6.00;0.90;;;8.20;99.90;;;;;;5055830;28;20083;-70
2022/09/20 02:26:34;;;;;;;6.43;1.05;;;8.30;99.90;;;;;;5025063;28;20052;-70
2022/09/20 02:29:34;;;;;;;8.02;1.10;;;8.20;99.90;;;;;;5025649;28;20037;-70
2022/09/20 02:32:02;;;;;;;6.20;1.17;;;8.10;99.90;;;;;;5038606;28;20041;-70
2022/09/20 02:34:43;;;;;;;7.95;1.65;;;8.10;99.90;;;;;;5054008;28;20033;-70
2022/09/20 02:37:33;;;;;;;6.72;1.10;;;8.10;99.90;;;;;;5025327;28;20106;-70
2022/09/20 02:40:18;;;;;;;5.57;0.80;;;8.10;99.90;;;;;;5022536;28;20049;-70
2022/09/20 02:42:58;;;;;;;8.02;1.17;;;8.10;99.90;;;;;;5007289;28;20387;-70
2022/09/20 02:45:38;;;;;;;7.53;1.27;;;8.10;99.90;;;;;;5055263;28;20052;-70
2022/09/20 02:48:05;;;;;;;8.77;1.23;;;8.10;99.90;;;;;;5024117;28;20052;-70
2022/09/20 02:50:45;;;;;;;4.22;0.90;;;8.10;99.90;;;;;;5023959;28;20060;-70
2022/09/20 02:53:48;;;;;;;7.80;0.87;;;8.10;99.90;;;;;;5023627;28;20088;-70
2022/09/20 02:56:33;;;;;;;7.40;1.00;;;8.10;99.90;;;;;;5055300;28;20041;-70
2022/09/20 02:59:21;;;;;;;6.50;1.20;;;8.10;99.90;;;;;;5028387;28;20127;-70
2022/09/20 03:02:18;;;;;;;6.47;0.95;;;8.10;99.90;;;;;;5029829;28;20049;-69
2022/09/20 03:04:55;;;;;;;7.15;1.00;;;8.10;99.90;;;;;;5053653;28;20136;-69
2022/09/20 03:07:55;;;;;;;7.65;0.90;;;8.10;99.90;;;;;;5041474;28;20520;-70
2022/09/20 03:10:48;;;;;;;9.02;1.52;;;8.10;99.90;;;;;;5054053;28;20063;-70
2022/09/20 03:13:33;;;;;;;7.18;1.17;;;8.10;99.90;;;;;;5006704;28;20067;-70
2022/09/20 03:16:11;;;;;;;8.90;1.30;;;8.20;99.90;;;;;;5039111;28;20037;-69
2022/09/20 03:18:58;;;;;;;6.18;0.90;;;8.20;99.90;;;;;;5022746;28;20129;-69
2022/09/20 03:22:17;;;;;;;8.02;1.15;;;8.20;99.90;;;;;;5036352;28;20040;-70
2022/09/20 03:25:04;;;;;;;7.22;1.00;;;8.30;99.90;;;;;;5003723;28;20170;-70
2022/09/20 03:27:47;;;;;;;11.27;1.30;;;8.30;99.90;;;;;;5055573;28;20091;-69
2022/09/20 03:30:35;;;;;;;8.15;1.05;;;8.30;99.90;;;;;;5023407;28;20180;-70
2022/09/20 03:33:11;;;;;;;9.90;1.38;;;8.30;99.90;;;;;;5023819;28;20480;-70
2022/09/20 03:36:03;;;;;;;4.78;0.95;;;8.40;99.90;;;;;;5022589;28;20922;-70
2022/09/20 03:39:00;;;;;;;6.60;1.00;;;8.40;99.90;;;;;;5037666;28;20346;-70
2022/09/20 03:41:38;;;;;;;7.60;1.10;;;8.40;99.90;;;;;;5039033;28;20166;-70
2022/09/20 03:44:17;;;;;;;10.07;1.10;;;8.40;99.90;;;;;;5025595;28;20070;-70
2022/09/20 03:46:45;;;;;;;6.18;1.15;;;8.50;99.90;;;;;;5054503;28;20681;-70
2022/09/20 03:49:20;;;;;;;5.80;1.17;;;8.50;99.90;;;;;;5055752;28;20620;-70
2022/09/20 03:52:04;;;;;;;5.32;1.40;;;8.50;99.90;;;;;;5025781;28;20041;-70
2022/09/20 03:55:05;;;;;;;4.68;1.00;;;8.50;99.90;;;;;;5022857;28;20046;-69
2022/09/20 03:57:54;;;;;;;10.57;1.33;;;8.60;99.90;;;;;;5008272;28;20049;-70
2022/09/20 04:00:29;;;;;;;9.88;1.50;;;8.60;99.90;;;;;;5021067;28;20383;-70
2022/09/20 04:03:06;;;;;;;8.48;1.05;;;8.70;99.90;;;;;;5013938;28;20041;-70
2022/09/20 04:05:44;;;;;;;5.38;0.80;;;8.60;99.90;;;;;;5036151;28;20042;-70
2022/09/20 04:09:07;;;;;;;6.05;0.88;;;8.80;99.90;;;;;;5021924;28;20037;-70
2022/09/20 04:12:13;;;;;;;4.55;0.95;;;8.70;99.90;;;;;;5020595;28;20065;-70
2022/09/20 04:14:52;;;;;;;5.32;0.98;;;8.70;99.90;;;;;;5004432;28;20048;-70
2022/09/20 04:17:17;;;;;;;5.53;1.50;;;8.70;99.90;;;;;;4996659;28;20045;-70
2022/09/20 04:19:51;;;;;;;6.65;1.08;;;8.70;99.90;;;;;;5004688;28;20068;-70
2022/09/20 04:22:23;;;;;;;6.32;0.90;;;8.70;99.90;;;;;;5024613;28;20065;-70
2022/09/20 04:25:10;;;;;;;9.23;1.05;;;8.70;99.90;;;;;;5041748;28;20054;-70
2022/09/20 04:27:46;;;;;;;9.73;1.20;;;8.80;99.90;;;;;;5036894;28;20421;-70
2022/09/20 04:30:17;;;;;;;6.78;0.93;;;8.80;99.90;;;;;;5026122;28;20192;-70
2022/09/20 04:33:09;;;;;;;7.22;1.08;;;8.80;99.90;;;;;;5039324;28;21955;-70
2022/09/20 04:38:54;;;;;;;12.02;1.25;;;8.80;99.90;;;;;;5026194;28;20128;-70
2022/09/20 04:41:51;;;;;;;11.48;1.00;;;8.80;99.90;;;;;;5033300;28;20498;-70
2022/09/20 04:44:37;;;;;;;9.27;1.25;;;8.80;99.90;;;;;;5041182;28;20445;-70
2022/09/20 04:47:27;;;;;;;5.75;1.40;;;8.80;99.90;;;;;;5028724;28;20041;-69
2022/09/20 04:50:14;;;;;;;7.57;1.05;;;8.90;99.90;;;;;;5027400;28;20148;-69
2022/09/20 04:53:18;;;;;;;5.60;1.00;;;8.90;99.90;;;;;;5040988;28;20046;-69
2022/09/20 04:56:20;;;;;;;7.15;1.25;;;8.90;99.90;;;;;;4983652;28;20410;-70
2022/09/20 04:59:04;;;;;;;5.40;1.13;;;8.90;99.90;;;;;;4984936;28;20062;-70
2022/09/20 05:01:58;;;;;;;6.55;1.00;;;8.90;99.90;;;;;;5036616;28;20506;-70
2022/09/20 05:04:47;;;;;;;3.65;1.30;;;8.90;99.90;;;;;;5040170;28;20136;-70
2022/09/20 05:07:51;;;;;;;6.78;1.20;;;8.90;99.90;;;;;;5024194;28;20052;-70
2022/09/20 05:10:41;;;;;;;9.43;1.10;;;8.90;99.90;;;;;;5019145;28;20060;-69
2022/09/20 05:13:10;;;;;;;7.95;1.00;;;9.00;99.90;;;;;;5023331;28;20046;-70
2022/09/20 05:15:42;;;;;;;4.70;0.82;;;8.90;99.90;;;;;;5039764;28;20099;-70
2022/09/20 05:18:34;;;;;;;4.88;1.15;;;9.00;99.90;;;;;;5023707;28;20065;-70
2022/09/20 05:21:19;;;;;;;5.93;0.93;;;9.00;99.90;;;;;;5034546;28;20053;-70
2022/09/20 05:23:58;;;;;;;5.90;1.30;;;9.00;99.90;;;;;;5006250;28;20059;-70
2022/09/20 05:26:37;;;;;;;8.77;1.30;;;9.00;99.90;;;;;;5009247;28;20049;-70
2022/09/20 05:29:28;;;;;;;6.22;1.48;;;9.10;99.90;;;;;;5007478;28;20806;-70
2022/09/20 05:32:17;;;;;;;6.07;1.98;;;8.90;99.90;;;;;;5009606;28;20056;-69
2022/09/20 05:35:01;;;;;;;9.85;1.75;;;9.10;99.90;;;;;;5005141;28;20060;-69
2022/09/20 05:37:48;;;;;;;7.18;1.45;;;9.20;99.90;;;;;;5009239;28;20060;-70
2022/09/20 05:40:17;;;;;;;10.18;1.55;;;9.20;99.90;;;;;;5027748;28;20195;-70
2022/09/20 05:43:06;;;;;;;7.78;1.58;;;9.30;99.90;;;;;;5035657;28;21339;-69
2022/09/20 05:45:32;;;;;;;6.95;1.00;;;9.60;99.90;;;;;;5022270;28;20061;-69
2022/09/20 05:48:25;;;;;;;8.23;1.48;;;9.40;99.90;;;;;;5039211;28;20417;-69
2022/09/20 05:51:15;;;;;;;8.63;1.70;;;9.40;99.90;;;;;;5023120;28;20046;-68
2022/09/20 05:53:53;;;;;;;6.28;1.02;;;9.40;99.90;;;;;;5025307;28;20429;-70
2022/09/20 05:56:37;;;;;;;7.03;1.30;;;9.40;99.90;;;;;;5021928;28;20049;-70
2022/09/20 05:59:16;;;;;;;4.75;1.33;;;9.40;99.90;;;;;;5025621;28;20426;-69
2022/09/20 06:02:02;;;;;;;6.53;1.23;;;9.50;99.90;;;;;;5038050;28;20498;-70
2022/09/20 06:04:56;;;;;;;9.20;1.73;;;9.50;99.90;;;;;;5041526;28;20093;-70
2022/09/20 06:07:35;;;;;;;7.28;1.40;;;9.50;99.90;;;;;;5021880;28;20064;-70
2022/09/20 06:10:09;;;;;;;5.07;1.70;;;9.50;99.90;;;;;;5026603;28;20052;-70
2022/09/20 06:13:10;;;;;;;5.40;1.40;;;9.60;99.90;;;;;;5056740;28;20064;-70
2022/09/20 06:15:45;;;;;;;7.43;1.40;;;9.70;99.90;;;;;;5041514;28;20183;-70
2022/09/20 06:18:24;;;;;;;11.85;1.48;;;9.70;99.90;;;;;;5047717;28;20056;-70
2022/09/20 06:21:06;;;;;;;4.82;1.30;;;9.80;99.90;;;;;;5017743;28;20407;-71
2022/09/20 06:23:34;;;;;;;6.32;1.40;;;9.80;99.90;;;;;;5021509;28;20087;-70
2022/09/20 06:26:06;;;;;;;9.52;1.58;;;9.90;99.90;;;;;;5018498;28;20041;-70
2022/09/20 06:28:37;;;;;;;5.28;1.65;;;9.90;99.90;;;;;;5039565;28;20060;-69
2022/09/20 06:31:06;;;;;;;9.90;1.52;;;9.90;99.90;;;;;;5026562;28;20068;-70
2022/09/20 06:33:32;;;;;;;5.90;1.65;;;9.90;99.90;;;;;;5026492;28;20045;-70
2022/09/20 06:42:09;;;;;;;9.38;1.58;;;10.00;99.90;;;;;;5022193;28;20053;-70
2022/09/20 06:44:40;;;;;;;10.02;1.77;;;10.10;99.90;;;;;;5023092;28;20124;-69
2022/09/20 06:47:08;;;;;;;6.32;1.40;;;10.10;99.90;;;;;;5025343;28;20103;-70
2022/09/20 06:49:35;;;;;;;10.60;1.35;;;10.10;99.90;;;;;;5022241;28;20038;-70
2022/09/20 06:52:09;;;;;;;9.82;1.67;;;10.20;99.90;;;;;;5007214;28;20092;-69
2022/09/20 06:54:36;;;;;;;11.35;1.70;;;10.20;99.90;;;;;;5006418;28;20057;-70
2022/09/20 06:57:04;;;;;;;6.43;1.30;;;10.20;99.90;;;;;;5040863;28;20443;-70
2022/09/20 06:59:30;;;;;;;11.32;1.20;;;10.20;99.90;;;;;;5024975;28;20124;-70
2022/09/20 07:01:59;;;;;;;10.80;1.58;;;10.30;99.90;;;;;;5040258;28;22122;-70
2022/09/20 07:04:25;;;;;;;9.18;1.65;;;10.30;99.90;;;;;;5007255;28;20065;-70
2022/09/20 07:06:52;;;;;;;8.73;1.50;;;10.30;99.90;;;;;;5022945;28;20136;-69
2022/09/20 07:09:19;;;;;;;7.47;1.45;;;10.40;99.90;;;;;;5022488;28;20435;-70
2022/09/20 07:11:45;;;;;;;6.10;1.50;;;10.40;99.90;;;;;;5002012;28;20696;-70
2022/09/20 07:14:10;;;;;;;12.05;1.75;;;10.40;99.90;;;;;;5033103;28;20041;-70
2022/09/20 07:16:37;;;;;;;6.85;1.50;;;10.40;99.90;;;;;;5023248;28;20111;-70
2022/09/20 07:19:05;;;;;;;6.82;1.40;;;10.50;99.90;;;;;;5021022;28;20088;-70
2022/09/20 07:21:34;;;;;;;7.55;1.50;;;10.50;99.90;;;;;;5025344;28;20569;-70
2022/09/20 07:24:00;;;;;;;7.90;1.60;;;10.50;99.90;;;;;;5019869;28;20037;-69
2022/09/20 07:26:28;;;;;;;7.38;1.38;;;10.60;99.90;;;;;;5038223;28;20041;-69
2022/09/20 07:28:55;;;;;;;5.38;1.20;;;10.60;99.90;;;;;;5024849;28;20037;-70
2022/09/20 07:31:23;;;;;;;9.88;1.58;;;10.90;99.90;;;;;;5023685;28;20037;-70
2022/09/20 07:33:49;;;;;;;9.88;1.50;;;10.60;99.90;;;;;;5018205;28;20061;-70
2022/09/20 07:36:15;;;;;;;5.78;2.05;;;10.60;99.90;;;;;;5036954;28;20501;-71
2022/09/20 07:38:42;;;;;;;8.10;1.15;;;10.70;99.90;;;;;;5023125;28;20037;-71
2022/09/20 07:41:09;;;;;;;8.95;1.30;;;10.90;99.90;;;;;;5024776;28;20045;-71
2022/09/20 07:43:35;;;;;;;9.98;1.92;;;11.20;99.90;;;;;;5022147;28;20080;-71
2022/09/20 07:46:01;;;;;;;7.28;1.23;;;11.40;99.90;;;;;;5022765;28;20765;-71
2022/09/20 07:48:34;;;;;;;7.85;1.15;;;11.60;99.90;;;;;;5022236;28;20041;-71
2022/09/20 07:51:09;;;;;;;5.55;1.33;;;11.80;99.90;;;;;;5019841;28;20090;-71
2022/09/20 07:53:35;;;;;;;9.73;1.40;;;12.00;99.90;;;;;;5038824;28;20520;-71
2022/09/20 07:56:04;;;;;;;7.18;1.60;;;12.20;99.90;;;;;;5039658;28;20045;-70
2022/09/20 07:58:32;;;;;;;7.78;1.23;;;12.40;99.90;;;;;;5026821;28;20041;-71
2022/09/20 08:01:04;;;;;;;8.68;1.52;;;12.60;99.90;;;;;;5022780;28;20046;-71
2022/09/20 08:03:30;;;;;;;;;;;12.80;99.90;;;;;;5023701;28;20129;-70
2022/09/20 08:06:00;;;;;;;7.95;1.25;;;13.00;99.90;;;;;;5026847;28;19949;-71
2022/09/20 08:08:27;;;;;;;10.13;1.40;;;13.20;99.90;;;;;;5025962;28;20053;-70
2022/09/20 08:11:00;;;;;;;7.72;1.35;;;13.30;99.90;;;;;;5009536;28;20048;-70
2022/09/20 08:13:28;;;;;;;5.82;1.08;;;13.40;99.90;;;;;;5024624;28;20405;-70
2022/09/20 08:16:03;;;;;;;8.25;1.65;;;13.50;99.90;;;;;;5026407;28;20052;-70
2022/09/20 08:18:29;;;;;;;5.10;0.95;;;13.60;99.90;;;;;;5026783;28;20053;-70
2022/09/20 08:20:55;;;;;;;5.70;1.10;;;13.80;99.90;;;;;;5028947;28;20038;-71
2022/09/20 08:23:20;;;;;;;7.10;1.30;;;13.90;99.90;;;;;;5025779;28;20455;-70
2022/09/20 08:25:47;;;;;;;4.45;0.90;;;14.00;99.90;;;;;;5011207;28;20041;-71
2022/09/20 08:28:13;;;;;;;6.93;1.65;;;14.10;99.90;;;;;;5056375;28;20037;-70
2022/09/20 08:30:38;;;;;;;5.00;0.93;;;14.20;99.90;;;;;;5028167;28;20041;-70
2022/09/20 08:33:05;;;;;;;7.38;1.85;;;14.20;99.90;;;;;;5026184;28;20073;-71
2022/09/20 08:35:34;;;;;;;7.85;1.00;;;14.30;99.90;;;;;;5027064;28;20577;-70
2022/09/20 08:38:00;;;;;;;8.05;1.20;;;14.30;99.90;;;;;;5057945;28;20525;-70
2022/09/20 08:40:29;;;;;;;5.68;1.10;;;14.50;99.90;;;;;;5025816;28;20064;-71
2022/09/20 08:42:55;;;;;;;7.50;1.15;;;14.60;99.90;;;;;;5025704;28;20467;-70
2022/09/20 08:45:23;;;;;;;6.95;1.33;;;14.60;99.90;;;;;;5024750;28;20080;-71
2022/09/20 08:48:06;;;;;;;8.75;1.40;;;14.70;99.90;;;;;;5027489;28;20052;-71
2022/09/20 08:50:35;;;;;;;4.75;0.90;;;14.80;99.90;;;;;;5024923;28;20046;-71
2022/09/20 08:53:03;;;;;;;9.80;0.93;;;14.80;99.90;;;;;;5026894;28;20049;-71
2022/09/20 08:55:31;;;;;;;6.57;1.00;;;14.90;99.90;;;;;;5025113;28;20180;-71
2022/09/20 08:57:59;;;;;;;8.32;1.30;;;14.90;99.90;;;;;;5024642;28;20810;-71
2022/09/20 09:00:30;;;;;;;5.07;1.23;;;14.90;99.90;;;;;;5024909;28;20037;-71
2022/09/20 09:03:02;;;;;;;5.65;0.82;;;15.00;99.90;;;;;;5042068;28;20052;-71
2022/09/20 09:05:39;;;;;;;8.60;1.27;;;14.90;99.90;;;;;;5023989;28;20124;-70
2022/09/20 09:08:15;;;;;;;5.30;1.23;;;14.90;99.90;;;;;;5038996;28;20045;-71
2022/09/20 09:10:46;;;;;;;8.50;1.00;;;14.70;99.90;;;;;;5036666;28;20045;-70
2022/09/20 09:13:33;;;;;;;5.97;0.98;;;14.60;99.90;;;;;;5005578;28;20748;-71
2022/09/20 09:16:05;;;;;;;4.22;0.95;;;14.60;99.90;;;;;;5042255;28;20044;-70
2022/09/20 09:18:34;;;;;;;8.57;1.10;;;14.50;99.90;;;;;;5041374;28;20124;-71
2022/09/20 09:21:03;;;;;;;5.18;0.98;;;14.50;99.90;;;;;;5040919;28;20636;-71
2022/09/20 09:23:36;;;;;;;7.18;0.73;;;14.50;99.90;;;;;;5054692;28;20123;-71
2022/09/20 09:26:04;;;;;;;6.35;1.30;;;14.50;99.90;;;;;;5029003;28;20040;-72
2022/09/20 09:28:30;;;;;;;6.90;1.15;;;14.50;99.90;;;;;;5025947;28;20033;-71
2022/09/20 09:31:13;;;;;;;4.72;1.23;;;14.50;99.90;;;;;;5027066;28;20119;-70
2022/09/20 09:33:45;;;;;;;5.32;1.30;;;14.60;99.90;;;;;;5026642;28;20077;-71
2022/09/20 09:36:19;;;;;;;6.70;1.35;;;14.60;99.90;;;;;;5028290;28;20057;-71
2022/09/20 09:38:46;;;;;;;7.45;1.00;;;14.60;99.90;;;;;;5026639;28;20049;-71
2022/09/20 09:41:24;;;;;;;8.27;1.05;;;14.60;99.90;;;;;;5025310;28;20049;-71
2022/09/20 09:43:59;;;;;;;4.20;0.80;;;14.60;99.90;;;;;;5057807;28;20068;-71
2022/09/20 09:46:29;;;;;;;6.22;1.00;;;14.60;99.90;;;;;;5024774;28;20057;-70
2022/09/20 09:49:06;;;;;;;7.43;1.58;;;14.70;99.90;;;;;;5009600;28;20743;-71
2022/09/20 09:51:33;;;;;;;5.47;0.88;;;14.80;99.90;;;;;;5040752;28;20160;-71
2022/09/20 09:54:00;;;;;;;6.28;1.05;;;14.70;99.90;;;;;;5025594;28;20049;-71
2022/09/20 09:56:47;;;;;;;8.45;0.93;;;14.70;99.90;;;;;;5024940;28;20502;-72
2022/09/20 09:59:16;;;;;;;6.25;1.30;;;14.70;99.90;;;;;;5026703;28;20091;-70
2022/09/20 10:02:11;;;;;;;7.80;1.10;;;14.70;99.90;;;;;;5025594;28;20049;-70
2022/09/20 10:05:10;;;;;;;5.35;0.80;;;14.80;99.90;;;;;;5040514;28;20390;-70
2022/09/20 10:07:53;;;;;;;8.30;1.05;;;14.80;99.90;;;;;;5024547;28;20049;-70
2022/09/20 10:10:31;;;;;;;11.27;1.30;;;14.80;99.90;;;;;;5025174;28;20048;-70
2022/09/20 10:13:08;;;;;;;8.93;1.20;;;14.90;99.90;;;;;;5040224;28;20069;-70
2022/09/20 10:15:52;;;;;;;5.40;0.88;;;14.90;99.90;;;;;;5026791;28;20048;-71
2022/09/20 10:18:38;;;;;;;3.17;0.75;;;14.90;99.90;;;;;;5058074;28;20406;-71
2022/09/20 10:21:43;;;;;;;6.20;0.80;;;14.90;99.90;;;;;;5056266;28;20384;-72
2022/09/20 10:24:34;;;;;;;5.88;1.00;;;14.90;99.90;;;;;;5024159;28;20754;-71
2022/09/20 10:27:25;;;;;;;6.82;0.98;;;14.90;99.90;;;;;;5058811;28;20111;-72
2022/09/20 10:30:11;;;;;;;7.28;0.88;;;15.00;99.90;;;;;;5037633;28;20057;-71
2022/09/20 10:32:44;;;;;;;4.30;0.80;;;14.90;99.90;;;;;;5056665;28;20099;-72
2022/09/20 10:35:25;;;;;;;7.15;1.02;;;14.90;99.90;;;;;;5025210;28;20052;-71
2022/09/20 10:38:00;;;;;;;6.47;1.15;;;15.00;99.90;;;;;;5039958;28;20049;-72
2022/09/20 10:43:34;;;;;;;5.65;1.05;;;15.00;99.90;;;;;;5023276;28;20072;-71
2022/09/20 10:46:21;;;;;;;8.55;0.90;;;15.00;99.90;;;;;;5025727;28;20041;-72
2022/09/20 10:48:57;;;;;;;4.68;0.80;;;15.10;99.90;;;;;;5037404;28;20410;-71
2022/09/20 10:51:25;;;;;;;6.68;1.10;;;15.20;99.90;;;;;;5029022;28;20140;-72
2022/09/20 10:54:02;;;;;;;4.38;0.93;;;15.30;99.90;;;;;;5041399;28;20128;-71
2022/09/20 10:56:32;;;;;;;5.90;0.90;;;15.40;99.90;;;;;;5023859;28;20084;-71
2022/09/20 10:59:04;;;;;;;8.57;1.20;;;15.50;99.90;;;;;;5009416;28;20033;-71
2022/09/20 11:01:51;;;;;;;9.75;1.42;;;15.60;99.90;;;;;;5025829;28;20411;-71
2022/09/20 11:04:27;;;;;;;5.15;0.93;;;15.70;99.90;;;;;;5058050;28;20038;-72
2022/09/20 11:07:20;;;;;;;11.82;1.30;;;15.70;99.90;;;;;;5024679;28;20052;-72
2022/09/20 11:09:56;;;;;;;10.13;1.25;;;15.60;99.90;;;;;;5025731;28;20137;-72
2022/09/20 11:12:38;;;;;;;6.03;0.98;;;15.60;99.90;;;;;;5024716;28;20049;-72
2022/09/20 11:15:47;;;;;;;8.40;1.35;;;15.50;99.90;;;;;;5025616;28;20144;-72
2022/09/20 11:18:29;;;;;;;8.13;1.15;;;15.40;99.90;;;;;;5024182;28;20100;-72
2022/09/20 11:21:07;;;;;;;6.07;0.90;;;15.40;99.90;;;;;;5007728;28;20144;-72
2022/09/20 11:23:58;;;;;;;4.50;0.98;;;15.40;99.90;;;;;;5023366;28;20053;-72
2022/09/20 11:26:30;;;;;;;7.18;1.23;;;15.30;99.90;;;;;;5023900;28;20048;-72
2022/09/20 11:29:32;;;;;;;10.02;1.10;;;15.30;99.90;;;;;;5041065;28;20156;-73
2022/09/20 11:32:23;;;;;;;7.28;1.40;;;15.30;99.90;;;;;;5028063;28;20041;-71
2022/09/20 11:35:01;;;;;;;5.30;0.90;;;15.30;99.90;;;;;;5026720;28;20051;-72
2022/09/20 11:37:32;;;;;;;6.07;1.17;;;15.40;99.90;;;;;;5027793;28;20045;-72
2022/09/20 11:40:05;;;;;;;4.95;0.90;;;15.40;99.90;;;;;;5026962;28;20048;-72
2022/09/20 11:42:35;;;;;;;9.18;1.38;;;15.50;99.90;;;;;;5043854;28;20045;-71
2022/09/20 11:45:02;;;;;;;7.28;0.80;;;15.60;99.90;;;;;;5028232;28;20042;-71
2022/09/20 11:47:40;;;;;;;6.18;0.93;;;15.70;99.90;;;;;;5025054;28;20037;-71
2022/09/20 11:50:37;;;;;;;3.92;0.77;;;15.60;99.90;;;;;;5013519;28;20041;-72
2022/09/20 11:53:12;;;;;;;7.10;1.00;;;15.60;99.90;;;;;;5025100;28;20045;-72
2022/09/20 11:56:04;;;;;;;2.25;1.00;;;15.70;99.90;;;;;;5027270;28;20095;-71
2022/09/20 11:58:30;;;;;;;;;;;15.80;99.90;;;;;;5058169;28;20448;-71
2022/09/20 12:00:58;;;;;;;4.47;0.70;;;15.80;99.90;;;;;;5023533;28;20408;-71
2022/09/20 12:03:37;;;;;;;6.25;0.77;;;15.80;99.90;;;;;;5027292;28;20494;-72
2022/09/20 12:06:19;;;;;;;5.30;0.82;;;15.80;99.90;;;;;;5042098;28;20049;-72
2022/09/20 12:08:49;;;;;;;3.10;0.60;;;15.80;99.90;;;;;;5038351;28;20107;-71
2022/09/20 12:11:16;;;;;;;6.93;0.80;;;15.70;99.90;;;;;;5042696;28;20067;-71
2022/09/20 12:13:52;;;;;;;7.45;0.90;;;15.60;99.90;;;;;;5043701;28;20056;-71
2022/09/20 12:16:45;;;;;;;6.68;0.95;;;15.60;99.90;;;;;;5023509;28;20057;-72
2022/09/20 12:19:14;;;;;;;5.93;0.80;;;15.50;99.90;;;;;;5008507;28;20042;-72
2022/09/20 12:21:58;;;;;;;4.63;0.80;;;15.50;99.90;;;;;;5028448;28;20038;-72
2022/09/20 12:24:28;;;;;;;6.60;1.25;;;15.50;99.90;;;;;;5008050;28;20041;-71
2022/09/20 12:26:58;;;;;;;4.07;0.85;;;15.60;99.90;;;;;;5021577;28;20116;-72
2022/09/20 12:29:25;;;;;;;4.63;0.73;;;15.80;99.90;;;;;;5001918;28;20402;-71
2022/09/20 12:31:56;;;;;;;5.80;0.80;;;16.00;99.90;;;;;;5036684;28;20489;-72
2022/09/20 12:34:25;;;;;;;3.53;0.85;;;16.10;99.90;;;;;;5021498;28;20045;-71
2022/09/20 12:36:54;;;;;;;5.88;0.90;;;16.10;99.90;;;;;;5005901;28;20089;-72
2022/09/20 12:39:27;;;;;;;7.47;0.93;;;16.20;99.90;;;;;;5054001;28;20056;-72
2022/09/20 12:42:11;;;;;;;3.22;0.47;;;16.10;99.90;;;;;;5051300;28;20041;-73
2022/09/20 12:44:47;;;;;;;8.43;0.80;;;16.20;99.90;;;;;;5057622;28;20077;-72
2022/09/20 12:47:19;;;;;;;4.13;0.63;;;16.10;99.90;;;;;;5055300;28;20045;-71
2022/09/20 12:52:54;;;;;;;9.15;1.38;;;15.90;99.90;;;;;;5038024;28;20044;-71
2022/09/20 12:55:44;;;;;;;4.18;0.70;;;15.90;99.90;;;;;;5041177;28;20042;-71
2022/09/20 12:58:13;;;;;;;6.60;0.98;;;16.00;99.90;;;;;;5058411;28;20410;-72
2022/09/20 13:01:10;;;;;;;3.80;0.70;;;16.10;99.90;;;;;;5022839;28;20057;-72
2022/09/20 13:03:39;;;;;;;7.13;0.80;;;16.10;99.90;;;;;;5008326;28;20546;-72
2022/09/20 13:06:15;;;;;;;4.10;0.60;;;16.10;99.90;;;;;;5023790;28;20045;-72
2022/09/20 13:08:59;;;;;;;8.30;0.85;;;16.10;99.90;;;;;;5042061;28;20049;-71
2022/09/20 13:11:34;;;;;;;2.03;0.50;;;16.20;99.90;;;;;;5042636;28;20126;-71
2022/09/20 13:14:37;;;;;;;3.30;0.70;;;16.10;99.90;;;;;;5026508;28;20064;-71
2022/09/20 13:17:26;;;;;;;4.72;0.95;;;16.20;99.90;;;;;;5003735;28;20126;-70
2022/09/20 13:19:52;;;;;;;4.60;0.60;;;16.30;99.90;;;;;;5022653;28;20411;-72
2022/09/20 13:22:35;;;;;;;8.60;1.10;;;16.30;99.90;;;;;;5010775;28;20052;-72
2022/09/20 13:25:05;;;;;;;5.97;1.35;;;16.40;99.90;;;;;;5056088;28;20106;-71
2022/09/20 13:27:38;;;;;;;9.20;0.93;;;16.40;99.90;;;;;;5020810;28;20565;-72
2022/09/20 13:30:22;;;;;;;9.15;1.13;;;16.30;99.90;;;;;;5024794;28;20048;-72
2022/09/20 13:32:50;;;;;;;5.88;1.27;;;16.30;99.90;;;;;;5021870;28;20044;-72
2022/09/20 13:35:18;;;;;;;7.53;1.00;;;16.30;99.90;;;;;;5025134;28;20138;-71
2022/09/20 13:37:44;;;;;;;9.90;1.10;;;16.30;99.90;;;;;;5022413;28;20072;-72
2022/09/20 13:40:37;;;;;;;8.77;1.30;;;16.30;99.90;;;;;;5038698;28;20100;-72
2022/09/20 13:43:27;;;;;;;6.93;1.50;;;16.20;99.90;;;;;;5024443;28;20062;-72
2022/09/20 13:46:17;;;;;;;6.78;1.02;;;16.10;99.90;;;;;;5018515;28;20132;-72
2022/09/20 13:48:51;;;;;;;7.17;1.17;;;16.20;99.90;;;;;;5010164;28;21008;-71
2022/09/20 13:51:24;;;;;;;6.30;1.10;;;16.00;99.90;;;;;;5024961;28;20529;-72
2022/09/20 13:53:50;;;;;;;7.30;0.95;;;16.00;99.90;;;;;;5021649;28;20049;-72
2022/09/20 13:56:24;;;;;;;5.93;1.20;;;16.00;99.90;;;;;;5009814;28;20041;-72
2022/09/20 13:58:51;;;;;;;5.93;1.23;;;15.90;99.90;;;;;;5041545;28;20049;-72